Aktualne dane pomiarowe

Uwaga, wersja testowa! Automatyczne pobieranie danych za pomocą narzędzi lub skryptów to umożliwiających jest zabronione.

Dane meteo z obszaru Polski uzyskane na podstawie depesz SYNOP pobieranych co godzinę z NWS. Najedź myszką na symbol przedstawiony w tabeli, aby uzyskać informacje co do jego znaczenia. Prosimy pamiętać, że to testowa wersja strony, która jeszcze nie jest ukończona. Stworzono również jest krótki FAQ dotyczący korzystania z tej podstrony Anomalie temperatury w chwili obecnej odniesione są do okresu referencyjnego 1951-2016. Okres ten będzie później zmieniony na 1981-2010. Kliknij ikonę aby pobrać plik CSV. Kliknij ikonę aby wygenerować mapę synoptyczną dla danego terminu.

Wybierz Datę:    

        

Przemyśl (12695)

Dane terminowe dla wybranej stacji. Kliknij datę, aby otrzymać dane z tego terminu dla wszystkich stacji.

TemperaturaZachmurzenieWiatrCiśnienieOpadyPogoda
 Data t td wb tx tn tg rh  Nt Nl Cl Cm Ch ws wd g1 g2 wx mslp ppp ch 24h 12h t ww ww w1 w2  
2019-07-20 23:00:00 17.7 15.1 15.9--- 85---1wx---1018.7 985.9 0.5---wx-----
2019-07-20 22:00:00 18.9 15.3 16.4--- 80---2----1018.3 985.6 0.7---wx-----
2019-07-20 21:00:00 19.7 15.3 16.7--- 76---0----1018.3 985.7 0.7---------
2019-07-20 20:00:00 21.1 14.9 17.0--- 68---3wx---1017.8 985.3 0.2---wx-----
2019-07-20 19:00:00 21.3 16.0 17.7--- 72---2----1017.3 984.9 0.2---wx-----
2019-07-20 18:00:00 23.2 15.7 18.3 26.9 16.7- 63---3----1017.2 985.0 0.0- 0.012wx-----
2019-07-20 17:00:00 25.1 15.0 18.6--- 54---3----1017.1 985.1 0.0---wx-----
2019-07-20 16:00:00 25.3 14.0 18.2--- 50---3----1016.7 984.7 -0.7---wx-----
2019-07-20 15:00:00 25.7 13.6 18.2--- 47---3----1016.9 985.0 -0.8---wx-----
2019-07-20 14:00:00 26.6 14.3 18.9--- 47---3----1016.9 985.1 -1.1---wx-----
2019-07-20 13:00:00 25.5 13.9 18.2--- 49---4wx---1017.4 985.5 -0.5---wx-----
2019-07-20 12:00:00 24.7 14.8 18.4--- 54---3----1017.9 985.8 0.0- 0.06wx-----
2019-07-20 11:00:00 23.3 14.7 17.8--- 59---3----1018.4 986.2 0.4---wx-----
2019-07-20 10:00:00 24.3 14.2 17.9--- 53---4----1018.1 986.0 0.4---wx-----
2019-07-20 09:00:00 24.5 13.2 17.5--- 49---2----1017.8 985.8 0.4---wx-----
2019-07-20 08:00:00 22.0 13.6 16.7--- 59---3----1018.1 985.8 0.8---wx-----
2019-07-20 07:00:00 20.9 13.5 16.2--- 63---2----1018.1 985.6 0.7---wx-----
2019-07-20 06:00:00 20.4 13.0 15.7 27.2 16.7 17 63---2----1017.9 985.3 0.7 0.0 0.012wx---- 9.5
2019-07-20 05:00:00 18.0 13.3 14.9--- 74---2wx---1017.7 984.9 0.4---------
2019-07-20 04:00:00 16.8 13.8 14.7--- 83---2----1017.8 984.9 0.6---wx-----
2019-07-20 03:00:00 17.9 12.2 14.2--- 69---2wx---1017.4 984.6 0.2---wx-----
2019-07-20 02:00:00 17.6 12.7 14.4--- 73---2wx---1017.3 984.5 0.2---wx-----
2019-07-20 01:00:00 18.1 12.2 14.3--- 68---2wx---1017.0 984.3 0.0---wx-----
2019-07-20 00:00:00 18.6 12.3 14.6--- 67---2wx---1017.1 984.4 0.5- 0.06wx-----
2019-07-19 23:00:00 18.9 12.3 14.7--- 66---2wx---1017.0 984.4 0.7---------
2019-07-19 22:00:00 20.1 11.7 14.9--- 58---3----1016.7 984.2 0.8---wx-----
2019-07-19 21:00:00 20.2 11.5 14.8--- 57---3wx---1016.3 983.8 0.8---wx-----
2019-07-19 20:00:00 20.7 11.6 15.1--- 56---3----1016.1 983.7 0.9---wx-----
2019-07-19 19:00:00 21.9 11.9 15.8--- 53---4----1015.6 983.4 0.9---wx-----
2019-07-19 18:00:00 23.0 11.9 16.2 27.2 10.3- 50---3----1015.2 983.0 0.6- 0.012wx-----
2019-07-19 17:00:00 25.0 11.9 17.1--- 44---2wx---1014.7 982.7 0.2---wx-----
2019-07-19 16:00:00 25.7 11.2 17.0--- 40---3----1014.3 982.5 -0.3---wx-----
2019-07-19 15:00:00 25.9 9.2 16.2--- 35---1----1014.2 982.4 -0.7---wx-----
2019-07-19 14:00:00 26.5 9.2 16.4--- 34---1----1014.3 982.5 -0.9---wx-----
2019-07-19 13:00:00 26.4 9.9 16.7--- 35---1----1014.6 982.8 -0.7---wx-----
2019-07-19 12:00:00 25.7 9.3 16.2--- 36---1----1015.0 983.2 -0.4- 0.06wx-----
2019-07-19 11:00:00 25.7 8.7 15.9--- 34---2----1015.2 983.4 -0.3---wx-----
2019-07-19 10:00:00 25.5 9.0 16.0--- 35---2----1015.4 983.5 0.0---wx-----
2019-07-19 09:00:00 24.4 9.7 15.8--- 39---1----1015.6 983.6 0.0---wx-----
2019-07-19 08:00:00 23.5 12.0 16.5--- 48---1----1015.9 983.7 0.3---wx-----
2019-07-19 07:00:00 20.6 12.5 15.5--- 60---1----1016.1 983.7 0.5---wx-----
2019-07-19 06:00:00 17.7 11.8 13.9 23.1 10.3 10 68---1----1016.3 983.6 0.4 0.0 0.012wx---- 10.2
2019-07-19 05:00:00 14.6 11.2 12.4--- 80---1wx---1016.5 983.4 0.4---wx-----
2019-07-19 04:00:00 11.9 10.1 10.7--- 89---2wx---1016.6 983.2 0.3---wx-----
2019-07-19 03:00:00 10.4 9.5 9.7--- 94---2wx---1016.8 983.2 0.5---wx-----
2019-07-19 02:00:00 11.5 10.0 10.5--- 91---2wx---1016.5 983.0 0.3---wx-----
2019-07-19 01:00:00 12.1 9.8 10.6--- 86---2wx---1016.3 982.9 0.4---wx-----
2019-07-19 00:00:00 12.0 9.8 10.5--- 86---3wx---1016.2 982.8 0.3- 0.06wx-----
1.1 ms

 

Print Friendly, PDF & Email